sensor_id;sensor_type;location;lat;lon;timestamp;temperature;humidity
10300;DHT22;5195;48.562;9.192;2023-12-22T00:02:29;9.40;64.80
10300;DHT22;5195;48.562;9.192;2023-12-22T00:05:06;9.60;64.00
10300;DHT22;5195;48.562;9.192;2023-12-22T00:07:42;9.60;63.60
10300;DHT22;5195;48.562;9.192;2023-12-22T00:10:18;9.50;63.50
10300;DHT22;5195;48.562;9.192;2023-12-22T00:12:55;9.40;63.90
10300;DHT22;5195;48.562;9.192;2023-12-22T00:15:31;9.30;64.00
10300;DHT22;5195;48.562;9.192;2023-12-22T00:18:07;9.30;63.60
10300;DHT22;5195;48.562;9.192;2023-12-22T00:20:43;9.50;62.20
10300;DHT22;5195;48.562;9.192;2023-12-22T00:23:19;9.50;62.20
10300;DHT22;5195;48.562;9.192;2023-12-22T00:25:54;9.50;62.20
10300;DHT22;5195;48.562;9.192;2023-12-22T00:28:30;9.80;61.80
10300;DHT22;5195;48.562;9.192;2023-12-22T00:31:06;9.70;61.40
10300;DHT22;5195;48.562;9.192;2023-12-22T00:33:42;9.70;61.40
10300;DHT22;5195;48.562;9.192;2023-12-22T00:36:17;9.60;61.30
10300;DHT22;5195;48.562;9.192;2023-12-22T00:38:53;9.40;61.60
10300;DHT22;5195;48.562;9.192;2023-12-22T00:41:29;9.40;61.20
10300;DHT22;5195;48.562;9.192;2023-12-22T00:44:05;9.40;61.10
10300;DHT22;5195;48.562;9.192;2023-12-22T00:46:41;9.20;61.50
10300;DHT22;5195;48.562;9.192;2023-12-22T00:49:17;9.30;60.90
10300;DHT22;5195;48.562;9.192;2023-12-22T00:51:52;9.60;59.70
10300;DHT22;5195;48.562;9.192;2023-12-22T00:54:28;9.80;58.70
10300;DHT22;5195;48.562;9.192;2023-12-22T00:57:04;10.00;56.80
10300;DHT22;5195;48.562;9.192;2023-12-22T00:59:40;9.50;59.30
10300;DHT22;5195;48.562;9.192;2023-12-22T01:02:20;9.50;58.60
10300;DHT22;5195;48.562;9.192;2023-12-22T01:04:57;9.50;58.50
10300;DHT22;5195;48.562;9.192;2023-12-22T01:07:33;9.80;57.80
10300;DHT22;5195;48.562;9.192;2023-12-22T01:10:08;10.00;56.10
10300;DHT22;5195;48.562;9.192;2023-12-22T01:12:45;10.20;55.30
10300;DHT22;5195;48.562;9.192;2023-12-22T01:15:20;10.30;55.40
10300;DHT22;5195;48.562;9.192;2023-12-22T01:17:57;10.10;55.80
10300;DHT22;5195;48.562;9.192;2023-12-22T01:20:33;10.00;55.70
10300;DHT22;5195;48.562;9.192;2023-12-22T01:23:09;9.90;57.10
10300;DHT22;5195;48.562;9.192;2023-12-22T01:25:44;9.90;56.90
10300;DHT22;5195;48.562;9.192;2023-12-22T01:28:20;9.80;57.20
10300;DHT22;5195;48.562;9.192;2023-12-22T01:30:56;9.30;58.50
10300;DHT22;5195;48.562;9.192;2023-12-22T01:33:32;9.30;58.50
10300;DHT22;5195;48.562;9.192;2023-12-22T01:36:08;9.80;57.80
10300;DHT22;5195;48.562;9.192;2023-12-22T01:38:44;9.70;57.60
10300;DHT22;5195;48.562;9.192;2023-12-22T01:41:19;10.00;55.80
10300;DHT22;5195;48.562;9.192;2023-12-22T01:43:56;10.20;55.20
10300;DHT22;5195;48.562;9.192;2023-12-22T01:46:32;9.90;56.40
10300;DHT22;5195;48.562;9.192;2023-12-22T01:49:07;9.90;56.50
10300;DHT22;5195;48.562;9.192;2023-12-22T01:51:43;9.70;56.80
10300;DHT22;5195;48.562;9.192;2023-12-22T01:54:18;9.70;56.70
10300;DHT22;5195;48.562;9.192;2023-12-22T01:56:54;9.90;56.10
10300;DHT22;5195;48.562;9.192;2023-12-22T01:59:30;9.70;56.40
10300;DHT22;5195;48.562;9.192;2023-12-22T02:02:05;9.70;56.30
10300;DHT22;5195;48.562;9.192;2023-12-22T02:04:41;10.00;54.50
10300;DHT22;5195;48.562;9.192;2023-12-22T02:07:17;10.00;54.50
10300;DHT22;5195;48.562;9.192;2023-12-22T02:09:53;10.20;53.80
10300;DHT22;5195;48.562;9.192;2023-12-22T02:12:29;10.10;53.70
10300;DHT22;5195;48.562;9.192;2023-12-22T02:15:05;9.90;55.30
10300;DHT22;5195;48.562;9.192;2023-12-22T02:17:48;9.80;56.00
10300;DHT22;5195;48.562;9.192;2023-12-22T02:20:19;9.90;55.20
10300;DHT22;5195;48.562;9.192;2023-12-22T02:22:55;10.00;53.70
10300;DHT22;5195;48.562;9.192;2023-12-22T02:25:30;9.80;55.20
10300;DHT22;5195;48.562;9.192;2023-12-22T02:28:12;9.70;55.00
10300;DHT22;5195;48.562;9.192;2023-12-22T02:31:04;9.90;54.80
10300;DHT22;5195;48.562;9.192;2023-12-22T02:33:39;10.00;53.30
10300;DHT22;5195;48.562;9.192;2023-12-22T02:36:14;10.10;52.80
10300;DHT22;5195;48.562;9.192;2023-12-22T02:38:50;9.80;54.30
10300;DHT22;5195;48.562;9.192;2023-12-22T02:41:25;9.50;55.30
10300;DHT22;5195;48.562;9.192;2023-12-22T02:44:01;9.50;55.20
10300;DHT22;5195;48.562;9.192;2023-12-22T02:46:37;9.70;54.50
10300;DHT22;5195;48.562;9.192;2023-12-22T02:49:13;9.90;54.20
10300;DHT22;5195;48.562;9.192;2023-12-22T02:51:49;10.00;52.80
10300;DHT22;5195;48.562;9.192;2023-12-22T02:54:24;9.80;54.30
10300;DHT22;5195;48.562;9.192;2023-12-22T02:57:01;9.20;56.60
10300;DHT22;5195;48.562;9.192;2023-12-22T02:59:36;9.20;55.90
10300;DHT22;5195;48.562;9.192;2023-12-22T03:02:12;9.30;55.60
10300;DHT22;5195;48.562;9.192;2023-12-22T03:04:48;9.80;54.00
10300;DHT22;5195;48.562;9.192;2023-12-22T03:07:24;9.90;54.00
10300;DHT22;5195;48.562;9.192;2023-12-22T03:09:59;9.80;54.40
10300;DHT22;5195;48.562;9.192;2023-12-22T03:12:36;9.20;55.90
10300;DHT22;5195;48.562;9.192;2023-12-22T03:15:11;9.20;55.90
10300;DHT22;5195;48.562;9.192;2023-12-22T03:17:47;9.00;56.50
10300;DHT22;5195;48.562;9.192;2023-12-22T03:20:22;8.90;57.10
10300;DHT22;5195;48.562;9.192;2023-12-22T03:22:58;8.80;57.60
10300;DHT22;5195;48.562;9.192;2023-12-22T03:25:34;8.90;56.90
10300;DHT22;5195;48.562;9.192;2023-12-22T03:28:10;8.80;57.20
10300;DHT22;5195;48.562;9.192;2023-12-22T03:30:46;8.80;57.20
10300;DHT22;5195;48.562;9.192;2023-12-22T03:33:21;9.00;56.60
10300;DHT22;5195;48.562;9.192;2023-12-22T03:35:57;9.40;55.70
10300;DHT22;5195;48.562;9.192;2023-12-22T03:38:32;9.30;55.80
10300;DHT22;5195;48.562;9.192;2023-12-22T03:41:08;9.10;56.50
10300;DHT22;5195;48.562;9.192;2023-12-22T03:43:43;8.90;57.10
10300;DHT22;5195;48.562;9.192;2023-12-22T03:46:19;8.70;57.50
10300;DHT22;5195;48.562;9.192;2023-12-22T03:48:55;8.90;56.60
10300;DHT22;5195;48.562;9.192;2023-12-22T03:51:31;9.10;55.90
10300;DHT22;5195;48.562;9.192;2023-12-22T03:54:07;9.10;55.90
10300;DHT22;5195;48.562;9.192;2023-12-22T03:56:42;9.10;56.10
10300;DHT22;5195;48.562;9.192;2023-12-22T03:59:18;9.00;56.60
10300;DHT22;5195;48.562;9.192;2023-12-22T04:01:53;9.10;55.80
10300;DHT22;5195;48.562;9.192;2023-12-22T04:04:29;9.10;56.00
10300;DHT22;5195;48.562;9.192;2023-12-22T04:07:05;8.90;57.10
10300;DHT22;5195;48.562;9.192;2023-12-22T04:09:41;8.90;57.10
10300;DHT22;5195;48.562;9.192;2023-12-22T04:12:16;9.10;56.60
10300;DHT22;5195;48.562;9.192;2023-12-22T04:14:52;9.10;56.10
10300;DHT22;5195;48.562;9.192;2023-12-22T04:17:27;9.30;55.30
10300;DHT22;5195;48.562;9.192;2023-12-22T04:20:04;9.30;55.70
10300;DHT22;5195;48.562;9.192;2023-12-22T04:22:41;9.40;54.90
10300;DHT22;5195;48.562;9.192;2023-12-22T04:25:16;9.40;55.10
10300;DHT22;5195;48.562;9.192;2023-12-22T04:27:52;9.50;54.40
10300;DHT22;5195;48.562;9.192;2023-12-22T04:30:27;9.80;54.10
10300;DHT22;5195;48.562;9.192;2023-12-22T04:33:03;10.00;52.30
10300;DHT22;5195;48.562;9.192;2023-12-22T04:35:39;9.90;54.10
10300;DHT22;5195;48.562;9.192;2023-12-22T04:38:14;9.90;53.50
10300;DHT22;5195;48.562;9.192;2023-12-22T04:40:50;10.10;52.20
10300;DHT22;5195;48.562;9.192;2023-12-22T04:43:25;9.90;53.60
10300;DHT22;5195;48.562;9.192;2023-12-22T04:46:02;9.30;55.30
10300;DHT22;5195;48.562;9.192;2023-12-22T04:48:37;9.40;55.40
10300;DHT22;5195;48.562;9.192;2023-12-22T04:51:13;9.40;55.70
10300;DHT22;5195;48.562;9.192;2023-12-22T04:53:48;9.40;55.80
10300;DHT22;5195;48.562;9.192;2023-12-22T04:56:25;8.90;56.90
10300;DHT22;5195;48.562;9.192;2023-12-22T04:59:00;8.90;56.80
10300;DHT22;5195;48.562;9.192;2023-12-22T05:01:36;9.00;57.40
10300;DHT22;5195;48.562;9.192;2023-12-22T05:04:11;9.00;57.50
10300;DHT22;5195;48.562;9.192;2023-12-22T05:06:47;9.10;57.80
10300;DHT22;5195;48.562;9.192;2023-12-22T05:09:23;9.60;57.30
10300;DHT22;5195;48.562;9.192;2023-12-22T05:11:59;9.60;57.30
10300;DHT22;5195;48.562;9.192;2023-12-22T05:14:35;9.80;56.90
10300;DHT22;5195;48.562;9.192;2023-12-22T05:17:10;9.90;56.50
10300;DHT22;5195;48.562;9.192;2023-12-22T05:19:46;9.60;56.70
10300;DHT22;5195;48.562;9.192;2023-12-22T05:22:21;9.30;57.40
10300;DHT22;5195;48.562;9.192;2023-12-22T05:24:57;9.00;58.20
10300;DHT22;5195;48.562;9.192;2023-12-22T05:27:53;9.00;58.10
10300;DHT22;5195;48.562;9.192;2023-12-22T05:30:28;9.00;58.10
10300;DHT22;5195;48.562;9.192;2023-12-22T05:33:04;9.20;57.70
10300;DHT22;5195;48.562;9.192;2023-12-22T05:35:39;9.40;56.70
10300;DHT22;5195;48.562;9.192;2023-12-22T05:38:15;9.70;55.80
10300;DHT22;5195;48.562;9.192;2023-12-22T05:40:50;9.90;55.00
10300;DHT22;5195;48.562;9.192;2023-12-22T05:43:26;10.00;53.40
10300;DHT22;5195;48.562;9.192;2023-12-22T05:46:02;10.10;52.70
10300;DHT22;5195;48.562;9.192;2023-12-22T05:48:39;10.00;53.40
10300;DHT22;5195;48.562;9.192;2023-12-22T05:51:14;9.90;54.20
10300;DHT22;5195;48.562;9.192;2023-12-22T05:53:50;10.00;52.80
10300;DHT22;5195;48.562;9.192;2023-12-22T05:56:25;10.20;52.40
10300;DHT22;5195;48.562;9.192;2023-12-22T05:59:01;10.30;52.10
10300;DHT22;5195;48.562;9.192;2023-12-22T06:01:37;10.10;53.10
10300;DHT22;5195;48.562;9.192;2023-12-22T06:04:13;10.10;52.40
10300;DHT22;5195;48.562;9.192;2023-12-22T06:06:48;9.80;54.30
10300;DHT22;5195;48.562;9.192;2023-12-22T06:09:24;9.40;54.90
10300;DHT22;5195;48.562;9.192;2023-12-22T06:12:00;9.50;55.40
10300;DHT22;5195;48.562;9.192;2023-12-22T06:14:37;9.10;56.60
10300;DHT22;5195;48.562;9.192;2023-12-22T06:17:14;9.20;56.50
10300;DHT22;5195;48.562;9.192;2023-12-22T06:19:49;9.20;56.60
10300;DHT22;5195;48.562;9.192;2023-12-22T06:22:25;9.40;56.60
10300;DHT22;5195;48.562;9.192;2023-12-22T06:25:01;9.80;55.90
10300;DHT22;5195;48.562;9.192;2023-12-22T06:27:37;9.80;55.90
10300;DHT22;5195;48.562;9.192;2023-12-22T06:30:13;9.60;56.10
10300;DHT22;5195;48.562;9.192;2023-12-22T06:32:48;9.20;56.50
10300;DHT22;5195;48.562;9.192;2023-12-22T06:35:24;9.20;56.30
10300;DHT22;5195;48.562;9.192;2023-12-22T06:38:00;8.90;57.00
10300;DHT22;5195;48.562;9.192;2023-12-22T06:40:35;8.80;56.90
10300;DHT22;5195;48.562;9.192;2023-12-22T06:43:11;8.70;57.60
10300;DHT22;5195;48.562;9.192;2023-12-22T06:45:47;8.40;59.00
10300;DHT22;5195;48.562;9.192;2023-12-22T06:48:23;8.30;58.50
10300;DHT22;5195;48.562;9.192;2023-12-22T06:50:59;8.50;59.20
10300;DHT22;5195;48.562;9.192;2023-12-22T06:53:36;8.90;58.50
10300;DHT22;5195;48.562;9.192;2023-12-22T06:56:20;9.00;59.00
10300;DHT22;5195;48.562;9.192;2023-12-22T06:58:55;9.00;58.70
10300;DHT22;5195;48.562;9.192;2023-12-22T07:01:32;9.40;58.30
10300;DHT22;5195;48.562;9.192;2023-12-22T07:04:07;9.40;58.00
10300;DHT22;5195;48.562;9.192;2023-12-22T07:06:42;9.20;58.00
10300;DHT22;5195;48.562;9.192;2023-12-22T07:11:57;8.90;58.80
10300;DHT22;5195;48.562;9.192;2023-12-22T07:14:33;8.80;58.60
10300;DHT22;5195;48.562;9.192;2023-12-22T07:17:09;9.20;57.40
10300;DHT22;5195;48.562;9.192;2023-12-22T07:19:44;9.20;57.40
10300;DHT22;5195;48.562;9.192;2023-12-22T07:22:20;9.20;57.40
10300;DHT22;5195;48.562;9.192;2023-12-22T07:24:57;8.90;57.90
10300;DHT22;5195;48.562;9.192;2023-12-22T07:27:32;9.00;57.50
10300;DHT22;5195;48.562;9.192;2023-12-22T07:30:10;8.90;57.50
10300;DHT22;5195;48.562;9.192;2023-12-22T07:32:46;9.00;57.00
10300;DHT22;5195;48.562;9.192;2023-12-22T07:35:22;9.00;57.00
10300;DHT22;5195;48.562;9.192;2023-12-22T07:37:57;8.90;57.50
10300;DHT22;5195;48.562;9.192;2023-12-22T07:40:33;8.90;56.90
10300;DHT22;5195;48.562;9.192;2023-12-22T07:43:08;9.00;57.00
10300;DHT22;5195;48.562;9.192;2023-12-22T07:45:45;8.60;57.90
10300;DHT22;5195;48.562;9.192;2023-12-22T07:48:20;8.70;58.00
10300;DHT22;5195;48.562;9.192;2023-12-22T07:50:56;8.60;58.30
10300;DHT22;5195;48.562;9.192;2023-12-22T07:53:32;8.60;58.60
10300;DHT22;5195;48.562;9.192;2023-12-22T07:56:08;8.60;58.60
10300;DHT22;5195;48.562;9.192;2023-12-22T07:58:43;9.00;57.80
10300;DHT22;5195;48.562;9.192;2023-12-22T08:01:19;9.30;57.10
10300;DHT22;5195;48.562;9.192;2023-12-22T08:03:55;9.70;55.70
10300;DHT22;5195;48.562;9.192;2023-12-22T08:06:31;9.80;55.70
10300;DHT22;5195;48.562;9.192;2023-12-22T08:09:06;9.60;56.00
10300;DHT22;5195;48.562;9.192;2023-12-22T08:11:42;9.30;56.70
10300;DHT22;5195;48.562;9.192;2023-12-22T08:14:21;9.30;56.50
10300;DHT22;5195;48.562;9.192;2023-12-22T08:16:54;9.30;56.70
10300;DHT22;5195;48.562;9.192;2023-12-22T08:19:30;9.40;57.00
10300;DHT22;5195;48.562;9.192;2023-12-22T08:22:05;9.30;56.60
10300;DHT22;5195;48.562;9.192;2023-12-22T08:24:41;9.20;57.10
10300;DHT22;5195;48.562;9.192;2023-12-22T08:27:17;9.00;57.60
10300;DHT22;5195;48.562;9.192;2023-12-22T08:29:52;9.10;57.20
10300;DHT22;5195;48.562;9.192;2023-12-22T08:32:28;9.50;56.80
10300;DHT22;5195;48.562;9.192;2023-12-22T08:35:04;9.70;55.70
10300;DHT22;5195;48.562;9.192;2023-12-22T08:37:42;9.70;55.90
10300;DHT22;5195;48.562;9.192;2023-12-22T08:40:18;9.40;56.50
10300;DHT22;5195;48.562;9.192;2023-12-22T08:42:53;9.50;56.60
10300;DHT22;5195;48.562;9.192;2023-12-22T08:45:35;9.40;56.70
10300;DHT22;5195;48.562;9.192;2023-12-22T08:48:12;9.80;56.80
10300;DHT22;5195;48.562;9.192;2023-12-22T08:50:48;9.80;56.70
10300;DHT22;5195;48.562;9.192;2023-12-22T08:53:24;10.00;55.30
10300;DHT22;5195;48.562;9.192;2023-12-22T08:56:00;10.10;55.00
10300;DHT22;5195;48.562;9.192;2023-12-22T08:58:39;10.00;55.30
10300;DHT22;5195;48.562;9.192;2023-12-22T09:01:14;9.90;56.10
10300;DHT22;5195;48.562;9.192;2023-12-22T09:03:51;9.80;56.40
10300;DHT22;5195;48.562;9.192;2023-12-22T09:06:27;9.60;57.00
10300;DHT22;5195;48.562;9.192;2023-12-22T09:09:02;9.60;56.60
10300;DHT22;5195;48.562;9.192;2023-12-22T09:11:39;9.90;55.80
10300;DHT22;5195;48.562;9.192;2023-12-22T09:14:15;10.10;54.60
10300;DHT22;5195;48.562;9.192;2023-12-22T09:16:51;10.10;54.30
10300;DHT22;5195;48.562;9.192;2023-12-22T09:19:28;9.80;55.80
10300;DHT22;5195;48.562;9.192;2023-12-22T09:22:04;9.90;55.80
10300;DHT22;5195;48.562;9.192;2023-12-22T09:24:39;9.80;56.00
10300;DHT22;5195;48.562;9.192;2023-12-22T09:27:18;9.60;56.50
10300;DHT22;5195;48.562;9.192;2023-12-22T09:29:54;9.70;57.00
10300;DHT22;5195;48.562;9.192;2023-12-22T09:32:29;10.00;55.90
10300;DHT22;5195;48.562;9.192;2023-12-22T09:35:05;9.90;56.90
10300;DHT22;5195;48.562;9.192;2023-12-22T09:37:40;10.00;56.20
10300;DHT22;5195;48.562;9.192;2023-12-22T09:40:16;9.90;57.20
10300;DHT22;5195;48.562;9.192;2023-12-22T09:42:55;9.50;58.10
10300;DHT22;5195;48.562;9.192;2023-12-22T09:45:32;9.30;58.50
10300;DHT22;5195;48.562;9.192;2023-12-22T09:48:07;9.30;58.50
10300;DHT22;5195;48.562;9.192;2023-12-22T09:50:43;9.40;58.40
10300;DHT22;5195;48.562;9.192;2023-12-22T09:53:18;9.40;58.30
10300;DHT22;5195;48.562;9.192;2023-12-22T09:55:54;9.30;58.70
10300;DHT22;5195;48.562;9.192;2023-12-22T09:58:30;9.20;59.10
10300;DHT22;5195;48.562;9.192;2023-12-22T10:01:05;9.30;59.10
10300;DHT22;5195;48.562;9.192;2023-12-22T10:03:41;9.70;58.30
10300;DHT22;5195;48.562;9.192;2023-12-22T10:06:16;10.10;56.60
10300;DHT22;5195;48.562;9.192;2023-12-22T10:08:55;10.00;56.50
10300;DHT22;5195;48.562;9.192;2023-12-22T10:11:31;9.80;57.90
10300;DHT22;5195;48.562;9.192;2023-12-22T10:14:06;9.60;58.40
10300;DHT22;5195;48.562;9.192;2023-12-22T10:16:42;9.30;59.10
10300;DHT22;5195;48.562;9.192;2023-12-22T10:19:21;9.30;59.10
10300;DHT22;5195;48.562;9.192;2023-12-22T10:21:57;9.20;59.30
10300;DHT22;5195;48.562;9.192;2023-12-22T10:24:46;9.40;58.90
10300;DHT22;5195;48.562;9.192;2023-12-22T10:27:25;9.80;57.70
10300;DHT22;5195;48.562;9.192;2023-12-22T10:30:02;9.80;57.70
10300;DHT22;5195;48.562;9.192;2023-12-22T10:32:39;9.90;57.60
10300;DHT22;5195;48.562;9.192;2023-12-22T10:35:12;10.00;56.00
10300;DHT22;5195;48.562;9.192;2023-12-22T10:37:48;10.00;56.10
10300;DHT22;5195;48.562;9.192;2023-12-22T10:40:23;9.80;57.60
10300;DHT22;5195;48.562;9.192;2023-12-22T10:42:59;9.90;57.40
10300;DHT22;5195;48.562;9.192;2023-12-22T10:45:34;10.20;55.70
10300;DHT22;5195;48.562;9.192;2023-12-22T10:48:10;10.50;55.00
10300;DHT22;5195;48.562;9.192;2023-12-22T10:50:46;10.70;54.50
10300;DHT22;5195;48.562;9.192;2023-12-22T10:53:21;10.50;54.70
10300;DHT22;5195;48.562;9.192;2023-12-22T10:55:57;10.50;54.70
10300;DHT22;5195;48.562;9.192;2023-12-22T10:58:32;10.30;54.90
10300;DHT22;5195;48.562;9.192;2023-12-22T11:01:09;10.40;55.10
10300;DHT22;5195;48.562;9.192;2023-12-22T11:03:48;10.60;55.00
10300;DHT22;5195;48.562;9.192;2023-12-22T11:06:22;10.40;55.10
10300;DHT22;5195;48.562;9.192;2023-12-22T11:08:57;10.20;55.80
10300;DHT22;5195;48.562;9.192;2023-12-22T11:11:33;9.90;57.30
10300;DHT22;5195;48.562;9.192;2023-12-22T11:14:10;9.90;57.50
10300;DHT22;5195;48.562;9.192;2023-12-22T11:16:45;9.90;57.50
10300;DHT22;5195;48.562;9.192;2023-12-22T11:19:21;10.10;56.70
10300;DHT22;5195;48.562;9.192;2023-12-22T11:21:57;9.80;58.10
10300;DHT22;5195;48.562;9.192;2023-12-22T11:24:33;9.80;58.10
10300;DHT22;5195;48.562;9.192;2023-12-22T11:27:09;9.90;58.30
10300;DHT22;5195;48.562;9.192;2023-12-22T11:29:48;9.70;58.70
10300;DHT22;5195;48.562;9.192;2023-12-22T11:32:27;9.70;58.70
10300;DHT22;5195;48.562;9.192;2023-12-22T11:35:03;9.60;59.50
10300;DHT22;5195;48.562;9.192;2023-12-22T11:37:40;9.70;59.60
10300;DHT22;5195;48.562;9.192;2023-12-22T11:40:16;9.60;59.40
10300;DHT22;5195;48.562;9.192;2023-12-22T11:42:53;9.80;59.80
10300;DHT22;5195;48.562;9.192;2023-12-22T11:45:32;10.10;58.50
10300;DHT22;5195;48.562;9.192;2023-12-22T11:48:08;10.30;58.10
10300;DHT22;5195;48.562;9.192;2023-12-22T11:50:43;10.20;57.90
10300;DHT22;5195;48.562;9.192;2023-12-22T11:53:27;10.20;58.30
10300;DHT22;5195;48.562;9.192;2023-12-22T11:56:03;10.40;58.10
10300;DHT22;5195;48.562;9.192;2023-12-22T12:01:21;9.90;59.60
10300;DHT22;5195;48.562;9.192;2023-12-22T12:03:56;9.90;60.00
10300;DHT22;5195;48.562;9.192;2023-12-22T12:06:32;9.90;60.40
10300;DHT22;5195;48.562;9.192;2023-12-22T12:09:07;9.90;60.40
10300;DHT22;5195;48.562;9.192;2023-12-22T12:12:08;9.90;60.60
10300;DHT22;5195;48.562;9.192;2023-12-22T12:14:31;9.90;60.60
10300;DHT22;5195;48.562;9.192;2023-12-22T12:17:07;10.20;59.50
10300;DHT22;5195;48.562;9.192;2023-12-22T12:19:42;10.00;59.20
10300;DHT22;5195;48.562;9.192;2023-12-22T12:22:17;9.80;60.70
10300;DHT22;5195;48.562;9.192;2023-12-22T12:24:53;9.50;61.30
10300;DHT22;5195;48.562;9.192;2023-12-22T12:27:28;9.70;61.80
10300;DHT22;5195;48.562;9.192;2023-12-22T12:30:11;9.90;61.30
10300;DHT22;5195;48.562;9.192;2023-12-22T12:32:46;9.90;61.00
10300;DHT22;5195;48.562;9.192;2023-12-22T12:35:22;10.00;60.30
10300;DHT22;5195;48.562;9.192;2023-12-22T12:37:58;10.20;59.90
10300;DHT22;5195;48.562;9.192;2023-12-22T12:40:34;10.30;59.40
10300;DHT22;5195;48.562;9.192;2023-12-22T12:43:10;10.30;59.40
10300;DHT22;5195;48.562;9.192;2023-12-22T12:45:46;10.40;59.60
10300;DHT22;5195;48.562;9.192;2023-12-22T12:48:21;10.40;59.20
10300;DHT22;5195;48.562;9.192;2023-12-22T12:51:07;10.60;58.90
10300;DHT22;5195;48.562;9.192;2023-12-22T12:53:42;10.70;58.50
10300;DHT22;5195;48.562;9.192;2023-12-22T12:56:18;10.50;58.70
10300;DHT22;5195;48.562;9.192;2023-12-22T12:58:54;10.60;58.90
10300;DHT22;5195;48.562;9.192;2023-12-22T13:01:30;10.60;58.90
10300;DHT22;5195;48.562;9.192;2023-12-22T13:04:05;10.40;58.90
10300;DHT22;5195;48.562;9.192;2023-12-22T13:06:45;10.40;59.20
10300;DHT22;5195;48.562;9.192;2023-12-22T13:09:20;10.60;58.90
10300;DHT22;5195;48.562;9.192;2023-12-22T13:11:56;10.40;58.90
10300;DHT22;5195;48.562;9.192;2023-12-22T13:14:32;10.10;59.90
10300;DHT22;5195;48.562;9.192;2023-12-22T13:17:08;10.10;59.90
10300;DHT22;5195;48.562;9.192;2023-12-22T13:19:43;10.10;60.00
10300;DHT22;5195;48.562;9.192;2023-12-22T13:22:20;10.20;60.10
10300;DHT22;5195;48.562;9.192;2023-12-22T13:24:56;10.40;59.80
10300;DHT22;5195;48.562;9.192;2023-12-22T13:27:43;10.80;59.00
10300;DHT22;5195;48.562;9.192;2023-12-22T13:30:08;10.80;59.00
10300;DHT22;5195;48.562;9.192;2023-12-22T13:32:44;11.00;58.40
10300;DHT22;5195;48.562;9.192;2023-12-22T13:35:22;11.00;58.40
10300;DHT22;5195;48.562;9.192;2023-12-22T13:37:57;11.10;58.20
10300;DHT22;5195;48.562;9.192;2023-12-22T13:40:34;11.20;58.20
10300;DHT22;5195;48.562;9.192;2023-12-22T13:43:09;11.20;58.00
10300;DHT22;5195;48.562;9.192;2023-12-22T13:45:48;11.00;59.00
10300;DHT22;5195;48.562;9.192;2023-12-22T13:48:20;10.90;58.80
10300;DHT22;5195;48.562;9.192;2023-12-22T13:51:00;10.70;59.50
10300;DHT22;5195;48.562;9.192;2023-12-22T13:53:32;10.70;59.50
10300;DHT22;5195;48.562;9.192;2023-12-22T13:56:08;10.90;59.30
10300;DHT22;5195;48.562;9.192;2023-12-22T13:58:48;10.90;59.10
10300;DHT22;5195;48.562;9.192;2023-12-22T14:01:23;10.90;59.00
10300;DHT22;5195;48.562;9.192;2023-12-22T14:03:59;10.50;59.60
10300;DHT22;5195;48.562;9.192;2023-12-22T14:06:34;10.50;60.10
10300;DHT22;5195;48.562;9.192;2023-12-22T14:09:11;10.80;60.00
10300;DHT22;5195;48.562;9.192;2023-12-22T14:11:47;11.00;59.50
10300;DHT22;5195;48.562;9.192;2023-12-22T14:14:22;11.10;59.20
10300;DHT22;5195;48.562;9.192;2023-12-22T14:16:58;11.20;59.00
10300;DHT22;5195;48.562;9.192;2023-12-22T14:19:34;10.90;59.50
10300;DHT22;5195;48.562;9.192;2023-12-22T14:22:10;10.90;59.50
10300;DHT22;5195;48.562;9.192;2023-12-22T14:24:45;10.70;59.60
10300;DHT22;5195;48.562;9.192;2023-12-22T14:27:25;10.20;60.90
10300;DHT22;5195;48.562;9.192;2023-12-22T14:30:01;10.20;60.90
10300;DHT22;5195;48.562;9.192;2023-12-22T14:32:36;10.30;61.40
10300;DHT22;5195;48.562;9.192;2023-12-22T14:35:12;10.20;61.10
10300;DHT22;5195;48.562;9.192;2023-12-22T14:37:47;10.10;61.60
10300;DHT22;5195;48.562;9.192;2023-12-22T14:40:23;10.20;62.10
10300;DHT22;5195;48.562;9.192;2023-12-22T14:42:59;10.20;61.80
10300;DHT22;5195;48.562;9.192;2023-12-22T14:45:34;10.00;62.20
10300;DHT22;5195;48.562;9.192;2023-12-22T14:48:10;9.90;63.70
10300;DHT22;5195;48.562;9.192;2023-12-22T14:50:45;10.00;62.90
10300;DHT22;5195;48.562;9.192;2023-12-22T14:53:21;10.10;62.60
10300;DHT22;5195;48.562;9.192;2023-12-22T14:55:56;9.90;63.70
10300;DHT22;5195;48.562;9.192;2023-12-22T14:58:33;10.10;63.00
10300;DHT22;5195;48.562;9.192;2023-12-22T15:01:15;10.00;63.00
10300;DHT22;5195;48.562;9.192;2023-12-22T15:03:52;9.80;64.30
10300;DHT22;5195;48.562;9.192;2023-12-22T15:06:29;9.80;64.30
10300;DHT22;5195;48.562;9.192;2023-12-22T15:09:05;9.60;65.10
10300;DHT22;5195;48.562;9.192;2023-12-22T15:11:44;9.60;65.10
10300;DHT22;5195;48.562;9.192;2023-12-22T15:14:20;9.50;65.30
10300;DHT22;5195;48.562;9.192;2023-12-22T15:16:56;9.50;65.60
10300;DHT22;5195;48.562;9.192;2023-12-22T15:19:32;9.70;65.40
10300;DHT22;5195;48.562;9.192;2023-12-22T15:22:08;10.10;63.40
10300;DHT22;5195;48.562;9.192;2023-12-22T15:24:45;10.40;62.20
10300;DHT22;5195;48.562;9.192;2023-12-22T15:27:20;10.40;62.10
10300;DHT22;5195;48.562;9.192;2023-12-22T15:29:56;10.20;62.60
10300;DHT22;5195;48.562;9.192;2023-12-22T15:32:32;10.30;62.80
10300;DHT22;5195;48.562;9.192;2023-12-22T15:35:08;10.10;63.10
10300;DHT22;5195;48.562;9.192;2023-12-22T15:37:44;10.10;63.10
10300;DHT22;5195;48.562;9.192;2023-12-22T15:40:19;10.20;63.20
10300;DHT22;5195;48.562;9.192;2023-12-22T15:42:55;10.60;62.60
10300;DHT22;5195;48.562;9.192;2023-12-22T15:45:30;10.60;62.30
10300;DHT22;5195;48.562;9.192;2023-12-22T15:48:06;10.70;62.20
10300;DHT22;5195;48.562;9.192;2023-12-22T15:50:44;10.80;61.20
10300;DHT22;5195;48.562;9.192;2023-12-22T15:53:20;10.50;61.30
10300;DHT22;5195;48.562;9.192;2023-12-22T15:55:56;10.50;61.70
10300;DHT22;5195;48.562;9.192;2023-12-22T15:58:32;10.50;62.00
10300;DHT22;5195;48.562;9.192;2023-12-22T16:01:08;10.50;62.00
10300;DHT22;5195;48.562;9.192;2023-12-22T16:03:43;10.60;62.00
10300;DHT22;5195;48.562;9.192;2023-12-22T16:06:22;10.50;61.80
10300;DHT22;5195;48.562;9.192;2023-12-22T16:08:57;10.30;62.30
10300;DHT22;5195;48.562;9.192;2023-12-22T16:11:33;10.40;62.50
10300;DHT22;5195;48.562;9.192;2023-12-22T16:14:09;10.70;61.80
10300;DHT22;5195;48.562;9.192;2023-12-22T16:16:45;11.00;61.10
10300;DHT22;5195;48.562;9.192;2023-12-22T16:19:23;11.30;59.50
10300;DHT22;5195;48.562;9.192;2023-12-22T16:21:59;11.40;58.80
10300;DHT22;5195;48.562;9.192;2023-12-22T16:24:37;11.40;58.80
10300;DHT22;5195;48.562;9.192;2023-12-22T16:27:10;11.20;58.90
10300;DHT22;5195;48.562;9.192;2023-12-22T16:29:46;11.10;58.90
10300;DHT22;5195;48.562;9.192;2023-12-22T16:32:22;11.00;59.30
10300;DHT22;5195;48.562;9.192;2023-12-22T16:34:58;10.90;59.10
10300;DHT22;5195;48.562;9.192;2023-12-22T16:37:33;11.20;59.00
10300;DHT22;5195;48.562;9.192;2023-12-22T16:40:09;11.00;59.00
10300;DHT22;5195;48.562;9.192;2023-12-22T16:42:45;11.00;59.50
10300;DHT22;5195;48.562;9.192;2023-12-22T16:45:21;11.10;59.40
10300;DHT22;5195;48.562;9.192;2023-12-22T16:47:56;11.30;59.40
10300;DHT22;5195;48.562;9.192;2023-12-22T16:50:33;11.40;59.60
10300;DHT22;5195;48.562;9.192;2023-12-22T16:53:08;11.40;58.90
10300;DHT22;5195;48.562;9.192;2023-12-22T16:55:44;11.50;58.90
10300;DHT22;5195;48.562;9.192;2023-12-22T16:58:19;11.50;58.30